Time;durP1;ratioP1;P1;durP2;ratioP2;P2;SDS_P1;SDS_P2;PMS_P1;PMS_P2;Temp;Humidity;BMP_temperature;BMP_pressure;BME280_temperature;BME280_humidity;BME280_pressure;Samples;Min_cycle;Max_cycle;Signal;HPM_P1;HPM_P2
2022/02/11 00:08:56;;;;;;;14.77;2.30;;;;;;;8.82;57.28;102274.81;4961362;28;20053;-56
2022/02/11 00:11:39;;;;;;;12.27;2.28;;;;;;;8.85;57.12;102279.25;4950880;28;20042;-55
2022/02/11 00:14:07;;;;;;;16.05;2.38;;;;;;;8.70;57.25;102276.00;4962644;28;20046;-56
2022/02/11 00:16:34;;;;;;;11.32;2.05;;;;;;;8.75;57.87;102271.88;4964638;28;20504;-56
2022/02/11 00:19:08;;;;;;;8.77;1.83;;;;;;;8.74;57.41;102280.50;4959325;28;20501;-58
2022/02/11 00:21:34;;;;;;;15.65;2.20;;;;;;;8.65;57.92;102286.22;4962574;28;20038;-57
2022/02/11 00:23:59;;;;;;;9.13;2.10;;;;;;;8.75;57.37;102271.88;4966917;28;20057;-57
2022/02/11 00:26:32;;;;;;;14.63;2.35;;;;;;;8.78;57.04;102283.28;4957630;28;20042;-56
2022/02/11 00:32:01;;;;;;;;;;;;;;;8.92;57.87;102287.38;4955219;28;20568;-56
2022/02/11 00:34:38;;;;;;;14.03;2.47;;;;;;;8.83;57.97;102283.50;4965408;28;19928;-57
2022/02/11 00:37:18;;;;;;;17.58;2.53;;;;;;;8.84;58.03;102283.56;4951351;28;20054;-56
2022/02/11 00:43:26;;;;;;;12.35;2.75;;;;;;;8.62;58.78;102274.78;4963597;28;20049;-58
2022/02/11 01:04:00;;;;;;;11.07;2.87;;;;;;;8.83;59.06;102262.72;4962508;28;20451;-55
2022/02/11 01:06:27;;;;;;;17.45;3.15;;;;;;;8.75;59.49;102251.97;4954320;28;20100;-55
2022/02/11 01:08:53;;;;;;;12.27;2.70;;;;;;;8.79;59.19;102261.66;4962337;28;20046;-57
2022/02/11 01:11:32;;;;;;;11.73;2.42;;;;;;;8.79;59.65;102256.47;4956404;28;20049;-57
2022/02/11 01:13:58;;;;;;;14.18;2.50;;;;;;;8.93;59.56;102278.75;4961506;28;20048;-56
2022/02/11 01:16:33;;;;;;;12.88;3.08;;;;;;;8.95;61.09;102274.53;4959284;28;20054;-55
2022/02/11 01:19:12;;;;;;;15.88;2.72;;;;;;;8.59;64.48;102267.75;4958829;28;20701;-55
2022/02/11 01:21:47;;;;;;;16.13;2.72;;;;;;;8.58;65.13;102265.06;4956543;28;20109;-56
2022/02/11 01:24:48;;;;;;;13.98;2.20;;;;;;;8.52;65.46;102264.00;4963009;28;20122;-58
2022/02/11 01:45:29;;;;;;;10.82;2.22;;;;;;;8.38;64.93;102293.66;4957432;28;20053;-57
2022/02/11 01:50:53;;;;;;;14.10;2.55;;;;;;;8.52;63.56;102304.69;4957540;28;20204;-58
2022/02/11 01:58:51;;;;;;;12.25;1.90;;;;;;;8.51;61.80;102295.09;4955838;28;20050;-58
2022/02/11 02:11:44;;;;;;;15.82;2.40;;;;;;;8.73;62.45;102299.53;4954855;28;20474;-54
2022/02/11 02:14:34;;;;;;;14.45;2.40;;;;;;;8.69;62.52;102301.09;4963788;28;20043;-53
2022/02/11 02:20:28;;;;;;;12.50;1.95;;;;;;;8.59;62.38;102305.84;4963163;28;20409;-57
2022/02/11 02:25:40;;;;;;;14.52;1.70;;;;;;;8.58;62.06;102294.56;4956548;28;20129;-55
2022/02/11 02:58:01;;;;;;;17.23;2.78;;;;;;;8.64;60.94;102330.34;4936957;28;20622;-55
2022/02/11 03:50:17;;;;;;;17.42;2.72;;;;;;;8.17;60.31;102396.59;4962152;28;20041;-56
2022/02/11 04:55:00;;;;;;;17.00;2.65;;;;;;;8.19;58.97;102532.63;4960529;28;20161;-56
2022/02/11 05:00:14;;;;;;;23.63;3.07;;;;;;;8.17;58.88;102548.97;4961482;28;20097;-53
2022/02/11 05:02:40;;;;;;;13.30;2.38;;;;;;;8.11;59.26;102547.81;4956829;28;20477;-56
2022/02/11 05:05:08;;;;;;;18.38;2.90;;;;;;;8.23;58.54;102550.16;4949456;28;20317;-55
2022/02/11 05:07:34;;;;;;;15.32;2.42;;;;;;;8.11;58.29;102557.34;4964193;28;20042;-56
2022/02/11 05:10:00;;;;;;;14.93;2.17;;;;;;;7.94;58.75;102556.47;4959498;28;20046;-55
2022/02/11 05:12:25;;;;;;;18.42;2.65;;;;;;;8.02;58.23;102562.97;4963126;28;20477;-55
2022/02/11 05:14:50;;;;;;;15.32;2.42;;;;;;;7.89;58.51;102583.94;4957486;28;20469;-56
2022/02/11 05:17:16;;;;;;;16.60;2.67;;;;;;;7.88;58.91;102596.81;4946615;28;20323;-55
2022/02/11 05:19:41;;;;;;;14.18;2.55;;;;;;;7.91;58.70;102590.09;4963645;28;20252;-55
2022/02/11 05:22:06;;;;;;;18.02;3.08;;;;;;;7.88;58.77;102583.84;4961210;28;20050;-58
2022/02/11 05:24:32;;;;;;;18.33;3.05;;;;;;;7.80;59.42;102587.78;4955816;28;20108;-56
2022/02/11 05:26:57;;;;;;;15.60;2.80;;;;;;;7.83;59.73;102596.59;4955614;28;20478;-54
2022/02/11 05:29:23;;;;;;;12.90;2.20;;;;;;;7.90;59.35;102603.91;4958506;28;20824;-55
2022/02/11 05:31:48;;;;;;;16.73;2.10;;;;;;;7.86;58.49;102617.53;4954799;28;20042;-52
2022/02/11 05:34:20;;;;;;;15.55;2.00;;;;;;;7.82;57.64;102618.16;4963372;28;20042;-53
2022/02/11 05:36:46;;;;;;;13.63;1.83;;;;;;;7.89;56.36;102621.97;4964665;28;20046;-55
2022/02/11 05:39:11;;;;;;;17.10;2.65;;;;;;;7.98;58.20;102632.88;4950988;28;20383;-55
2022/02/11 05:41:36;;;;;;;15.75;2.35;;;;;;;8.07;59.38;102636.81;4962434;28;20057;-55
2022/02/11 05:44:02;;;;;;;10.15;1.85;;;;;;;7.94;58.79;102655.16;4958566;28;20057;-54
2022/02/11 05:46:29;;;;;;;6.45;1.60;;;;;;;7.92;59.05;102654.22;4963774;28;20540;-54
2022/02/11 05:48:55;;;;;;;12.63;2.03;;;;;;;8.06;58.38;102650.59;4952883;28;20379;-57
2022/02/11 05:51:20;;;;;;;13.30;2.00;;;;;;;7.87;58.59;102662.59;4953060;28;20048;-56
2022/02/11 05:53:46;;;;;;;12.65;2.10;;;;;;;7.84;58.98;102663.31;4959087;28;20069;-57
2022/02/11 05:56:11;;;;;;;12.73;2.15;;;;;;;7.98;58.85;102669.22;4956438;28;20073;-56
2022/02/11 05:58:38;;;;;;;12.50;1.90;;;;;;;7.94;59.55;102673.34;4956936;28;20109;-57
2022/02/11 06:01:05;;;;;;;12.15;2.15;;;;;;;7.95;60.09;102669.06;4952080;28;20066;-55
2022/02/11 06:03:30;;;;;;;16.35;2.00;;;;;;;7.89;60.28;102674.81;4974685;28;20038;-57
2022/02/11 06:05:55;;;;;;;18.52;2.38;;;;;;;7.82;60.52;102672.69;4964992;28;20041;-54
2022/02/11 06:08:21;;;;;;;21.63;2.70;;;;;;;7.72;61.20;102673.94;4943851;28;20074;-59
2022/02/11 06:10:47;;;;;;;13.32;2.28;;;;;;;7.65;60.69;102681.28;4959619;28;20418;-54
2022/02/11 06:13:13;;;;;;;20.05;3.17;;;;;;;7.63;60.13;102672.53;4953369;28;20529;-54
2022/02/11 06:15:38;;;;;;;25.50;2.92;;;;;;;7.57;59.95;102682.56;4962123;28;20049;-58
2022/02/11 06:18:04;;;;;;;19.70;2.95;;;;;;;7.56;59.06;102680.81;4963368;28;20042;-52
2022/02/11 06:20:29;;;;;;;19.35;2.92;;;;;;;7.53;58.88;102688.41;4959344;28;20498;-56
2022/02/11 06:22:57;;;;;;;21.80;2.70;;;;;;;7.53;59.17;102696.22;4960941;28;20038;-56
2022/02/11 06:25:23;;;;;;;21.65;3.28;;;;;;;7.48;59.43;102700.25;4958057;28;20080;-56
2022/02/11 06:27:48;;;;;;;26.67;3.75;;;;;;;7.58;59.45;102718.09;4957301;28;20560;-56
2022/02/11 06:30:14;;;;;;;22.35;3.10;;;;;;;7.54;59.52;102718.75;4977485;28;20387;-58
2022/02/11 06:32:44;;;;;;;17.55;2.60;;;;;;;7.71;58.24;102736.16;4959842;28;20129;-55
2022/02/11 06:35:13;;;;;;;16.02;2.50;;;;;;;7.72;56.60;102733.63;4957513;28;20041;-56
2022/02/11 06:37:42;;;;;;;14.23;2.10;;;;;;;7.75;56.83;102738.09;4963954;28;20078;-58
2022/02/11 06:40:09;;;;;;;9.32;2.03;;;;;;;7.71;56.64;102744.81;4963454;28;20312;-55
2022/02/11 06:42:35;;;;;;;11.75;2.55;;;;;;;7.65;56.88;102749.69;4961636;28;20577;-56
2022/02/11 06:45:02;;;;;;;16.63;3.08;;;;;;;7.65;57.18;102756.56;4953320;28;20128;-55
2022/02/11 06:47:28;;;;;;;16.92;2.60;;;;;;;7.48;57.65;102760.84;4961497;28;20598;-51
2022/02/11 06:49:53;;;;;;;18.08;2.55;;;;;;;7.46;58.56;102770.22;4961211;28;20038;-55
2022/02/11 06:52:19;;;;;;;17.27;2.63;;;;;;;7.39;58.99;102775.88;4961479;28;20409;-53
2022/02/11 06:54:44;;;;;;;17.65;2.85;;;;;;;7.45;59.65;102789.19;4959305;28;20038;-55
2022/02/11 06:57:10;;;;;;;22.92;3.15;;;;;;;7.31;59.50;102793.63;4958196;28;20129;-54
2022/02/11 06:59:35;;;;;;;21.25;2.65;;;;;;;7.52;58.91;102809.50;4963015;28;20602;-55
2022/02/11 07:02:00;;;;;;;16.63;2.20;;;;;;;7.62;58.13;102816.13;4962444;28;20297;-55
2022/02/11 07:04:26;;;;;;;19.58;2.85;;;;;;;7.49;58.76;102827.53;4965611;28;20035;-55
2022/02/11 07:06:51;;;;;;;16.52;2.83;;;;;;;7.58;58.06;102822.81;4957619;28;20089;-57
2022/02/11 07:09:17;;;;;;;20.42;2.70;;;;;;;7.73;57.80;102834.09;4955862;28;20038;-55
2022/02/11 07:11:42;;;;;;;21.25;2.95;;;;;;;7.77;57.64;102835.13;4965111;28;20080;-56
2022/02/11 07:14:18;;;;;;;15.88;2.25;;;;;;;7.67;58.16;102841.53;4974810;28;20047;-56
2022/02/11 07:16:44;;;;;;;20.80;2.55;;;;;;;7.70;59.23;102845.97;4967026;28;20046;-57
2022/02/11 07:19:10;;;;;;;21.60;2.58;;;;;;;7.70;60.46;102856.38;4954259;28;20057;-56
2022/02/11 07:21:35;;;;;;;16.25;2.40;;;;;;;7.45;62.87;102848.88;4964454;28;20042;-56
2022/02/11 07:24:01;;;;;;;15.38;2.40;;;;;;;7.51;62.83;102857.03;4963101;28;20047;-56
2022/02/11 07:26:26;;;;;;;17.30;2.58;;;;;;;7.21;63.59;102860.44;4964512;28;20038;-55
2022/02/11 07:28:51;;;;;;;20.48;2.38;;;;;;;7.31;63.57;102865.38;4965395;28;20109;-54
2022/02/11 07:31:17;;;;;;;21.83;2.83;;;;;;;7.26;63.96;102871.97;4953006;28;20268;-56
2022/02/11 07:33:42;;;;;;;24.63;2.42;;;;;;;7.18;64.01;102876.75;4966181;28;20278;-56
2022/02/11 07:36:10;;;;;;;25.38;2.70;;;;;;;7.22;64.02;102886.47;4962762;28;20061;-56
2022/02/11 07:38:36;;;;;;;22.80;2.67;;;;;;;7.41;63.56;102887.56;4957031;28;20054;-56
2022/02/11 07:41:01;;;;;;;23.95;2.53;;;;;;;7.47;63.29;102899.19;4961868;28;20571;-55
2022/02/11 07:43:27;;;;;;;23.40;2.33;;;;;;;7.86;62.14;102902.28;4962772;28;20088;-55
2022/02/11 07:45:52;;;;;;;20.75;3.03;;;;;;;8.05;60.92;102903.38;4957984;28;20057;-57
2022/02/11 07:48:18;;;;;;;14.48;2.50;;;;;;;8.07;60.44;102909.56;4956445;28;20045;-55
2022/02/11 07:50:44;;;;;;;25.25;3.20;;;;;;;8.00;59.45;102910.03;4960945;28;20045;-59
2022/02/11 07:53:09;;;;;;;20.50;2.90;;;;;;;8.17;59.57;102923.09;4948658;28;20042;-58
2022/02/11 07:55:35;;;;;;;22.67;3.30;;;;;;;8.34;59.29;102932.72;4965165;28;20050;-54
2022/02/11 07:58:00;;;;;;;15.52;2.17;;;;;;;8.20;60.10;102931.94;4945593;28;20034;-56
2022/02/11 08:00:26;;;;;;;15.13;2.30;;;;;;;8.09;58.98;102935.63;4962207;28;20053;-57
2022/02/11 08:02:52;;;;;;;16.88;2.85;;;;;;;8.09;59.73;102952.13;4963654;28;20058;-56
2022/02/11 08:05:17;;;;;;;21.20;2.40;;;;;;;7.95;60.57;102952.13;4952753;28;20342;-55
2022/02/11 08:07:44;;;;;;;16.63;2.80;;;;;;;7.92;60.86;102963.25;4962512;28;20586;-56
2022/02/11 08:10:10;;;;;;;18.20;2.40;;;;;;;7.83;60.03;102964.41;4965078;28;20116;-56
2022/02/11 08:12:36;;;;;;;19.20;2.55;;;;;;;7.83;59.73;102978.31;4959576;28;20089;-56
2022/02/11 08:15:03;;;;;;;18.98;3.20;;;;;;;7.88;59.39;102986.34;4959968;28;21104;-53
2022/02/11 08:17:29;;;;;;;15.93;2.83;;;;;;;7.86;57.53;102995.78;4962021;28;20133;-56
2022/02/11 08:19:54;;;;;;;15.40;2.70;;;;;;;7.81;55.67;103005.88;4961366;28;20046;-55
2022/02/11 08:22:20;;;;;;;13.63;2.00;;;;;;;7.93;53.96;103005.72;4963628;28;20058;-55
2022/02/11 08:24:45;;;;;;;19.77;2.22;;;;;;;7.98;53.38;103006.88;4963236;28;20034;-57
2022/02/11 08:27:13;;;;;;;14.75;2.58;;;;;;;7.99;52.32;103013.88;4955287;28;20437;-56
2022/02/11 08:29:40;;;;;;;12.43;2.35;;;;;;;8.11;51.81;103017.16;4949137;28;20566;-58
2022/02/11 08:32:06;;;;;;;12.93;1.98;;;;;;;8.13;51.28;103031.13;4957430;28;20475;-51
2022/02/11 08:34:31;;;;;;;14.77;1.90;;;;;;;8.12;50.77;103035.41;4960606;28;20050;-56
2022/02/11 08:36:57;;;;;;;16.63;2.45;;;;;;;8.30;50.56;103030.41;4957862;28;20039;-56
2022/02/11 08:39:23;;;;;;;16.35;2.40;;;;;;;8.31;50.65;103037.41;4960940;28;20065;-55
2022/02/11 08:41:48;;;;;;;17.20;2.08;;;;;;;8.41;50.07;103038.84;4960451;28;20565;-55
2022/02/11 08:44:14;;;;;;;13.63;1.92;;;;;;;8.42;49.93;103044.09;4978943;28;20038;-55
2022/02/11 08:46:40;;;;;;;15.68;2.70;;;;;;;8.65;49.81;103057.50;4958791;28;20057;-56
2022/02/11 08:49:05;;;;;;;13.20;2.13;;;;;;;8.80;50.15;103046.25;4952367;28;20030;-57
2022/02/11 08:51:31;;;;;;;15.15;2.33;;;;;;;8.99;49.65;103055.03;4958100;28;20082;-55
2022/02/11 08:53:56;;;;;;;11.57;2.30;;;;;;;8.94;49.05;103057.41;4959909;28;20583;-54
2022/02/11 08:56:22;;;;;;;18.58;2.65;;;;;;;8.87;48.84;103061.38;4956606;28;20043;-53
2022/02/11 08:58:48;;;;;;;14.85;2.00;;;;;;;9.00;49.22;103064.66;4960832;28;20050;-55
2022/02/11 09:01:13;;;;;;;14.27;1.75;;;;;;;8.93;49.44;103074.72;4955876;28;20537;-56
2022/02/11 09:03:39;;;;;;;10.90;2.00;;;;;;;9.04;48.92;103079.59;4948515;28;20140;-56
2022/02/11 09:06:06;;;;;;;14.32;2.22;;;;;;;8.80;48.70;103077.44;4959803;28;20038;-54
2022/02/11 09:08:33;;;;;;;15.80;2.20;;;;;;;9.09;48.65;103096.38;4960993;28;20042;-56
2022/02/11 09:11:00;;;;;;;16.02;2.30;;;;;;;9.21;47.75;103094.44;4956080;28;20060;-55
2022/02/11 09:13:27;;;;;;;15.35;1.85;;;;;;;9.27;47.27;103100.84;4972094;28;20094;-57
2022/02/11 09:15:53;;;;;;;9.60;1.92;;;;;;;9.28;48.26;103107.84;4960962;28;20046;-55
2022/02/11 09:18:19;;;;;;;19.15;2.92;;;;;;;9.26;47.38;103106.00;4962067;28;20461;-57
2022/02/11 09:20:45;;;;;;;12.95;2.08;;;;;;;9.41;48.12;103113.72;4953810;28;20042;-56
2022/02/11 09:23:10;;;;;;;16.00;2.15;;;;;;;9.51;47.41;103116.91;4952087;28;20045;-56
2022/02/11 09:25:35;;;;;;;14.88;2.10;;;;;;;9.67;46.08;103114.31;4958656;28;20192;-56
2022/02/11 09:28:01;;;;;;;8.93;1.77;;;;;;;9.74;45.40;103131.16;4961687;28;20034;-55
2022/02/11 09:30:26;;;;;;;18.73;1.90;;;;;;;9.97;44.92;103128.03;4959067;28;20104;-56
2022/02/11 09:32:52;;;;;;;14.32;2.05;;;;;;;10.12;45.31;103133.13;4959061;28;20042;-58
2022/02/11 09:35:20;;;;;;;11.48;2.15;;;;;;;10.30;44.40;103154.97;4952625;28;20343;-56
